sensor_id;sensor_type;location;lat;lon;timestamp;P1;durP1;ratioP1;P2;durP2;ratioP2
65234;SDS011;51820;48.374;10.930;2022-09-01T00:00:18;17.20;;;9.32;;
65234;SDS011;51820;48.374;10.930;2022-09-01T00:02:51;15.00;;;9.27;;
65234;SDS011;51820;48.374;10.930;2022-09-01T00:05:20;14.60;;;9.37;;
65234;SDS011;51820;48.374;10.930;2022-09-01T00:07:48;14.77;;;8.90;;
65234;SDS011;51820;48.374;10.930;2022-09-01T00:10:16;14.48;;;9.13;;
65234;SDS011;51820;48.374;10.930;2022-09-01T00:12:45;17.23;;;8.93;;
65234;SDS011;51820;48.374;10.930;2022-09-01T00:15:13;15.52;;;9.60;;
65234;SDS011;51820;48.374;10.930;2022-09-01T00:17:43;15.23;;;9.63;;
65234;SDS011;51820;48.374;10.930;2022-09-01T00:20:12;15.35;;;9.13;;
65234;SDS011;51820;48.374;10.930;2022-09-01T00:22:45;13.82;;;9.43;;
65234;SDS011;51820;48.374;10.930;2022-09-01T00:25:14;14.10;;;8.98;;
65234;SDS011;51820;48.374;10.930;2022-09-01T00:27:45;15.48;;;9.68;;
65234;SDS011;51820;48.374;10.930;2022-09-01T00:30:14;14.70;;;8.63;;
65234;SDS011;51820;48.374;10.930;2022-09-01T00:32:45;14.90;;;10.00;;
65234;SDS011;51820;48.374;10.930;2022-09-01T00:35:14;15.90;;;10.15;;
65234;SDS011;51820;48.374;10.930;2022-09-01T00:37:44;15.77;;;10.00;;
65234;SDS011;51820;48.374;10.930;2022-09-01T00:40:13;16.88;;;9.98;;
65234;SDS011;51820;48.374;10.930;2022-09-01T00:42:43;16.10;;;10.33;;
65234;SDS011;51820;48.374;10.930;2022-09-01T00:45:11;16.98;;;9.70;;
65234;SDS011;51820;48.374;10.930;2022-09-01T00:47:40;15.68;;;10.55;;
65234;SDS011;51820;48.374;10.930;2022-09-01T00:50:10;19.75;;;10.48;;
65234;SDS011;51820;48.374;10.930;2022-09-01T00:52:41;21.13;;;10.13;;
65234;SDS011;51820;48.374;10.930;2022-09-01T00:55:13;16.40;;;10.40;;
65234;SDS011;51820;48.374;10.930;2022-09-01T00:57:43;15.75;;;10.10;;
65234;SDS011;51820;48.374;10.930;2022-09-01T01:00:13;17.33;;;10.57;;
65234;SDS011;51820;48.374;10.930;2022-09-01T01:02:44;20.00;;;10.52;;
65234;SDS011;51820;48.374;10.930;2022-09-01T01:05:15;16.27;;;9.73;;
65234;SDS011;51820;48.374;10.930;2022-09-01T01:07:43;16.67;;;10.63;;
65234;SDS011;51820;48.374;10.930;2022-09-01T01:10:14;17.27;;;10.70;;
65234;SDS011;51820;48.374;10.930;2022-09-01T01:12:44;16.40;;;10.35;;
65234;SDS011;51820;48.374;10.930;2022-09-01T01:15:12;19.88;;;10.65;;
65234;SDS011;51820;48.374;10.930;2022-09-01T01:17:42;16.23;;;10.90;;
65234;SDS011;51820;48.374;10.930;2022-09-01T01:20:11;17.50;;;10.50;;
65234;SDS011;51820;48.374;10.930;2022-09-01T01:23:05;19.17;;;11.07;;
65234;SDS011;51820;48.374;10.930;2022-09-01T01:25:47;15.63;;;10.88;;
65234;SDS011;51820;48.374;10.930;2022-09-01T01:28:19;19.38;;;11.45;;
65234;SDS011;51820;48.374;10.930;2022-09-01T01:30:53;20.83;;;11.20;;
65234;SDS011;51820;48.374;10.930;2022-09-01T01:33:27;17.37;;;10.93;;
65234;SDS011;51820;48.374;10.930;2022-09-01T01:35:57;17.98;;;11.43;;
65234;SDS011;51820;48.374;10.930;2022-09-01T01:38:27;16.27;;;10.77;;
65234;SDS011;51820;48.374;10.930;2022-09-01T01:40:59;16.63;;;10.50;;
65234;SDS011;51820;48.374;10.930;2022-09-01T01:43:28;17.58;;;11.15;;
65234;SDS011;51820;48.374;10.930;2022-09-01T01:45:57;17.67;;;10.03;;
65234;SDS011;51820;48.374;10.930;2022-09-01T01:48:35;17.10;;;10.68;;
65234;SDS011;51820;48.374;10.930;2022-09-01T01:51:07;19.40;;;10.73;;
65234;SDS011;51820;48.374;10.930;2022-09-01T01:53:38;16.70;;;10.65;;
65234;SDS011;51820;48.374;10.930;2022-09-01T01:56:09;16.88;;;11.23;;
65234;SDS011;51820;48.374;10.930;2022-09-01T01:58:37;16.27;;;10.60;;
65234;SDS011;51820;48.374;10.930;2022-09-01T02:01:10;17.98;;;11.45;;
65234;SDS011;51820;48.374;10.930;2022-09-01T02:03:40;18.48;;;11.65;;
65234;SDS011;51820;48.374;10.930;2022-09-01T02:06:12;16.45;;;11.02;;
65234;SDS011;51820;48.374;10.930;2022-09-01T02:08:45;18.08;;;10.60;;
65234;SDS011;51820;48.374;10.930;2022-09-01T02:11:14;18.60;;;11.30;;
65234;SDS011;51820;48.374;10.930;2022-09-01T02:13:43;18.00;;;11.15;;
65234;SDS011;51820;48.374;10.930;2022-09-01T02:16:12;19.70;;;12.10;;
65234;SDS011;51820;48.374;10.930;2022-09-01T02:18:42;19.80;;;12.40;;
65234;SDS011;51820;48.374;10.930;2022-09-01T02:21:14;21.42;;;12.30;;
65234;SDS011;51820;48.374;10.930;2022-09-01T02:23:45;18.80;;;11.77;;
65234;SDS011;51820;48.374;10.930;2022-09-01T02:26:16;20.73;;;11.70;;
65234;SDS011;51820;48.374;10.930;2022-09-01T02:28:49;20.45;;;12.77;;
65234;SDS011;51820;48.374;10.930;2022-09-01T02:31:24;19.35;;;12.07;;
65234;SDS011;51820;48.374;10.930;2022-09-01T02:33:56;19.55;;;12.40;;
65234;SDS011;51820;48.374;10.930;2022-09-01T02:36:25;19.10;;;11.90;;
65234;SDS011;51820;48.374;10.930;2022-09-01T02:38:54;18.50;;;12.02;;
65234;SDS011;51820;48.374;10.930;2022-09-01T02:41:28;19.48;;;11.85;;
65234;SDS011;51820;48.374;10.930;2022-09-01T02:44:01;19.52;;;12.38;;
65234;SDS011;51820;48.374;10.930;2022-09-01T02:46:40;21.67;;;12.43;;
65234;SDS011;51820;48.374;10.930;2022-09-01T02:49:24;22.30;;;12.37;;
65234;SDS011;51820;48.374;10.930;2022-09-01T02:51:57;19.83;;;12.73;;
65234;SDS011;51820;48.374;10.930;2022-09-01T02:54:28;18.92;;;12.45;;
65234;SDS011;51820;48.374;10.930;2022-09-01T02:56:59;21.45;;;12.57;;
65234;SDS011;51820;48.374;10.930;2022-09-01T02:59:29;20.45;;;11.88;;
65234;SDS011;51820;48.374;10.930;2022-09-01T03:01:59;20.00;;;12.80;;
65234;SDS011;51820;48.374;10.930;2022-09-01T03:04:27;20.08;;;11.90;;
65234;SDS011;51820;48.374;10.930;2022-09-01T03:07:01;19.83;;;12.50;;
65234;SDS011;51820;48.374;10.930;2022-09-01T03:09:30;22.27;;;12.90;;
65234;SDS011;51820;48.374;10.930;2022-09-01T03:12:02;19.75;;;12.52;;
65234;SDS011;51820;48.374;10.930;2022-09-01T03:14:33;19.03;;;12.67;;
65234;SDS011;51820;48.374;10.930;2022-09-01T03:17:01;21.80;;;12.60;;
65234;SDS011;51820;48.374;10.930;2022-09-01T03:19:30;21.23;;;12.52;;
65234;SDS011;51820;48.374;10.930;2022-09-01T03:22:05;21.20;;;12.25;;
65234;SDS011;51820;48.374;10.930;2022-09-01T03:24:34;20.08;;;12.50;;
65234;SDS011;51820;48.374;10.930;2022-09-01T03:27:05;18.30;;;11.57;;
65234;SDS011;51820;48.374;10.930;2022-09-01T03:29:34;20.40;;;11.98;;
65234;SDS011;51820;48.374;10.930;2022-09-01T03:32:04;22.75;;;12.40;;
65234;SDS011;51820;48.374;10.930;2022-09-01T03:34:33;20.35;;;12.32;;
65234;SDS011;51820;48.374;10.930;2022-09-01T03:37:02;19.85;;;12.40;;
65234;SDS011;51820;48.374;10.930;2022-09-01T03:39:33;19.53;;;11.40;;
65234;SDS011;51820;48.374;10.930;2022-09-01T03:42:02;22.30;;;12.20;;
65234;SDS011;51820;48.374;10.930;2022-09-01T03:44:32;19.92;;;12.15;;
65234;SDS011;51820;48.374;10.930;2022-09-01T03:47:05;20.38;;;12.55;;
65234;SDS011;51820;48.374;10.930;2022-09-01T03:49:37;23.50;;;14.43;;
65234;SDS011;51820;48.374;10.930;2022-09-01T03:52:05;19.00;;;12.47;;
65234;SDS011;51820;48.374;10.930;2022-09-01T03:54:34;19.90;;;12.40;;
65234;SDS011;51820;48.374;10.930;2022-09-01T03:57:04;20.58;;;13.40;;
65234;SDS011;51820;48.374;10.930;2022-09-01T03:59:36;19.77;;;12.50;;
65234;SDS011;51820;48.374;10.930;2022-09-01T04:02:11;18.95;;;12.40;;
65234;SDS011;51820;48.374;10.930;2022-09-01T04:04:40;19.07;;;12.67;;
65234;SDS011;51820;48.374;10.930;2022-09-01T04:07:11;20.92;;;11.90;;
65234;SDS011;51820;48.374;10.930;2022-09-01T04:09:45;21.33;;;13.07;;
65234;SDS011;51820;48.374;10.930;2022-09-01T04:12:13;21.00;;;13.23;;
65234;SDS011;51820;48.374;10.930;2022-09-01T04:14:48;22.27;;;12.90;;
65234;SDS011;51820;48.374;10.930;2022-09-01T04:17:17;19.40;;;12.50;;
65234;SDS011;51820;48.374;10.930;2022-09-01T04:20:03;19.88;;;12.80;;
65234;SDS011;51820;48.374;10.930;2022-09-01T04:22:34;19.48;;;12.30;;
65234;SDS011;51820;48.374;10.930;2022-09-01T04:25:07;21.58;;;12.52;;
65234;SDS011;51820;48.374;10.930;2022-09-01T04:27:36;21.15;;;13.00;;
65234;SDS011;51820;48.374;10.930;2022-09-01T04:30:08;22.20;;;13.33;;
65234;SDS011;51820;48.374;10.930;2022-09-01T04:32:41;24.10;;;13.30;;
65234;SDS011;51820;48.374;10.930;2022-09-01T04:35:12;22.27;;;13.45;;
65234;SDS011;51820;48.374;10.930;2022-09-01T04:37:43;22.33;;;13.90;;
65234;SDS011;51820;48.374;10.930;2022-09-01T04:40:13;21.98;;;13.88;;
65234;SDS011;51820;48.374;10.930;2022-09-01T04:42:45;23.80;;;14.57;;
65234;SDS011;51820;48.374;10.930;2022-09-01T04:45:15;21.83;;;13.90;;
65234;SDS011;51820;48.374;10.930;2022-09-01T04:47:47;22.38;;;13.70;;
65234;SDS011;51820;48.374;10.930;2022-09-01T04:50:16;21.42;;;13.95;;
65234;SDS011;51820;48.374;10.930;2022-09-01T04:53:03;22.38;;;14.00;;
65234;SDS011;51820;48.374;10.930;2022-09-01T04:55:44;23.47;;;14.00;;
65234;SDS011;51820;48.374;10.930;2022-09-01T04:58:17;24.67;;;13.88;;
65234;SDS011;51820;48.374;10.930;2022-09-01T05:00:49;23.00;;;14.45;;
65234;SDS011;51820;48.374;10.930;2022-09-01T05:03:19;23.63;;;13.70;;
65234;SDS011;51820;48.374;10.930;2022-09-01T05:06:00;23.27;;;13.32;;
65234;SDS011;51820;48.374;10.930;2022-09-01T05:08:29;23.93;;;14.60;;
65234;SDS011;51820;48.374;10.930;2022-09-01T05:11:05;24.63;;;12.95;;
65234;SDS011;51820;48.374;10.930;2022-09-01T05:13:41;23.05;;;14.18;;
65234;SDS011;51820;48.374;10.930;2022-09-01T05:16:13;24.27;;;13.57;;
65234;SDS011;51820;48.374;10.930;2022-09-01T05:18:50;21.85;;;13.20;;
65234;SDS011;51820;48.374;10.930;2022-09-01T05:21:20;21.33;;;13.27;;
65234;SDS011;51820;48.374;10.930;2022-09-01T05:23:54;22.75;;;14.27;;
65234;SDS011;51820;48.374;10.930;2022-09-01T05:26:24;22.05;;;14.07;;
65234;SDS011;51820;48.374;10.930;2022-09-01T05:28:54;23.27;;;14.43;;
65234;SDS011;51820;48.374;10.930;2022-09-01T05:31:27;24.30;;;14.65;;
65234;SDS011;51820;48.374;10.930;2022-09-01T05:34:03;21.93;;;13.57;;
65234;SDS011;51820;48.374;10.930;2022-09-01T05:36:33;23.63;;;13.60;;
65234;SDS011;51820;48.374;10.930;2022-09-01T05:39:04;21.80;;;13.35;;
65234;SDS011;51820;48.374;10.930;2022-09-01T05:41:37;22.67;;;14.00;;
65234;SDS011;51820;48.374;10.930;2022-09-01T05:44:07;25.48;;;13.80;;
65234;SDS011;51820;48.374;10.930;2022-09-01T05:46:38;22.13;;;12.97;;
65234;SDS011;51820;48.374;10.930;2022-09-01T05:49:09;21.20;;;13.20;;
65234;SDS011;51820;48.374;10.930;2022-09-01T05:51:40;22.30;;;13.93;;
65234;SDS011;51820;48.374;10.930;2022-09-01T05:54:15;22.38;;;12.60;;
65234;SDS011;51820;48.374;10.930;2022-09-01T05:56:49;19.67;;;12.70;;
65234;SDS011;51820;48.374;10.930;2022-09-01T05:59:24;24.87;;;13.57;;
65234;SDS011;51820;48.374;10.930;2022-09-01T06:02:00;20.75;;;12.40;;
65234;SDS011;51820;48.374;10.930;2022-09-01T06:04:29;24.38;;;13.85;;
65234;SDS011;51820;48.374;10.930;2022-09-01T06:07:02;22.27;;;13.23;;
65234;SDS011;51820;48.374;10.930;2022-09-01T06:09:37;21.17;;;12.13;;
65234;SDS011;51820;48.374;10.930;2022-09-01T06:12:07;21.53;;;13.30;;
65234;SDS011;51820;48.374;10.930;2022-09-01T06:14:43;23.25;;;14.00;;
65234;SDS011;51820;48.374;10.930;2022-09-01T06:17:15;21.50;;;13.25;;
65234;SDS011;51820;48.374;10.930;2022-09-01T06:19:44;19.67;;;12.68;;
65234;SDS011;51820;48.374;10.930;2022-09-01T06:22:14;22.48;;;13.02;;
65234;SDS011;51820;48.374;10.930;2022-09-01T06:24:42;18.40;;;11.70;;
65234;SDS011;51820;48.374;10.930;2022-09-01T06:27:21;18.30;;;11.73;;
65234;SDS011;51820;48.374;10.930;2022-09-01T06:29:49;19.20;;;11.50;;
65234;SDS011;51820;48.374;10.930;2022-09-01T06:32:20;18.65;;;10.95;;
65234;SDS011;51820;48.374;10.930;2022-09-01T06:34:52;19.52;;;10.70;;
65234;SDS011;51820;48.374;10.930;2022-09-01T06:37:23;18.40;;;11.07;;
65234;SDS011;51820;48.374;10.930;2022-09-01T06:39:59;17.95;;;10.70;;
65234;SDS011;51820;48.374;10.930;2022-09-01T06:42:29;21.10;;;12.20;;
65234;SDS011;51820;48.374;10.930;2022-09-01T06:45:00;16.10;;;10.35;;
65234;SDS011;51820;48.374;10.930;2022-09-01T06:47:31;19.27;;;11.75;;
65234;SDS011;51820;48.374;10.930;2022-09-01T06:50:00;18.13;;;11.23;;
65234;SDS011;51820;48.374;10.930;2022-09-01T06:52:29;18.48;;;11.38;;
65234;SDS011;51820;48.374;10.930;2022-09-01T06:55:18;17.88;;;10.90;;
65234;SDS011;51820;48.374;10.930;2022-09-01T06:57:46;20.45;;;11.55;;
65234;SDS011;51820;48.374;10.930;2022-09-01T07:00:39;18.38;;;11.65;;
65234;SDS011;51820;48.374;10.930;2022-09-01T07:03:11;16.90;;;10.90;;
65234;SDS011;51820;48.374;10.930;2022-09-01T07:06:03;19.42;;;11.05;;
65234;SDS011;51820;48.374;10.930;2022-09-01T07:09:12;17.52;;;10.93;;
65234;SDS011;51820;48.374;10.930;2022-09-01T07:12:05;17.98;;;10.85;;
65234;SDS011;51820;48.374;10.930;2022-09-01T07:14:51;17.15;;;10.48;;
65234;SDS011;51820;48.374;10.930;2022-09-01T07:17:42;18.37;;;11.50;;
65234;SDS011;51820;48.374;10.930;2022-09-01T07:20:16;19.20;;;10.82;;
65234;SDS011;51820;48.374;10.930;2022-09-01T07:22:50;17.48;;;10.38;;
65234;SDS011;51820;48.374;10.930;2022-09-01T07:25:38;15.57;;;10.02;;
65234;SDS011;51820;48.374;10.930;2022-09-01T07:28:30;17.52;;;10.27;;
65234;SDS011;51820;48.374;10.930;2022-09-01T07:31:02;16.03;;;9.87;;
65234;SDS011;51820;48.374;10.930;2022-09-01T07:33:53;14.27;;;9.45;;
65234;SDS011;51820;48.374;10.930;2022-09-01T07:36:46;17.52;;;9.10;;
65234;SDS011;51820;48.374;10.930;2022-09-01T07:39:36;17.20;;;8.18;;
65234;SDS011;51820;48.374;10.930;2022-09-01T07:42:38;13.40;;;8.15;;
65234;SDS011;51820;48.374;10.930;2022-09-01T07:46:02;12.07;;;7.27;;
65234;SDS011;51820;48.374;10.930;2022-09-01T07:48:53;15.52;;;8.32;;
65234;SDS011;51820;48.374;10.930;2022-09-01T07:51:43;13.50;;;8.68;;
65234;SDS011;51820;48.374;10.930;2022-09-01T07:54:19;12.98;;;8.27;;
65234;SDS011;51820;48.374;10.930;2022-09-01T07:56:49;20.65;;;7.93;;
65234;SDS011;51820;48.374;10.930;2022-09-01T07:59:22;12.53;;;8.20;;
65234;SDS011;51820;48.374;10.930;2022-09-01T08:02:02;13.15;;;8.13;;
65234;SDS011;51820;48.374;10.930;2022-09-01T08:04:31;12.60;;;7.50;;
65234;SDS011;51820;48.374;10.930;2022-09-01T08:07:01;11.65;;;7.57;;
65234;SDS011;51820;48.374;10.930;2022-09-01T08:09:35;17.48;;;9.07;;
65234;SDS011;51820;48.374;10.930;2022-09-01T08:12:11;12.80;;;7.93;;
65234;SDS011;51820;48.374;10.930;2022-09-01T08:14:46;11.90;;;8.02;;
65234;SDS011;51820;48.374;10.930;2022-09-01T08:17:39;13.73;;;8.57;;
65234;SDS011;51820;48.374;10.930;2022-09-01T08:20:26;12.02;;;7.60;;
65234;SDS011;51820;48.374;10.930;2022-09-01T08:23:15;11.95;;;7.70;;
65234;SDS011;51820;48.374;10.930;2022-09-01T08:25:47;14.17;;;8.67;;
65234;SDS011;51820;48.374;10.930;2022-09-01T08:28:16;13.00;;;7.68;;
65234;SDS011;51820;48.374;10.930;2022-09-01T08:30:54;12.75;;;8.10;;
65234;SDS011;51820;48.374;10.930;2022-09-01T08:33:34;15.15;;;7.50;;
65234;SDS011;51820;48.374;10.930;2022-09-01T08:36:03;11.57;;;7.85;;
65234;SDS011;51820;48.374;10.930;2022-09-01T08:38:31;13.90;;;7.47;;
65234;SDS011;51820;48.374;10.930;2022-09-01T08:41:02;12.20;;;7.20;;
65234;SDS011;51820;48.374;10.930;2022-09-01T08:43:38;11.63;;;7.55;;
65234;SDS011;51820;48.374;10.930;2022-09-01T08:46:16;12.40;;;7.10;;
65234;SDS011;51820;48.374;10.930;2022-09-01T08:48:52;14.50;;;7.43;;
65234;SDS011;51820;48.374;10.930;2022-09-01T08:52:10;15.77;;;7.67;;
65234;SDS011;51820;48.374;10.930;2022-09-01T08:54:48;12.32;;;7.60;;
65234;SDS011;51820;48.374;10.930;2022-09-01T08:57:23;13.10;;;8.05;;
65234;SDS011;51820;48.374;10.930;2022-09-01T09:00:19;27.88;;;19.30;;
65234;SDS011;51820;48.374;10.930;2022-09-01T09:02:54;34.55;;;20.55;;
65234;SDS011;51820;48.374;10.930;2022-09-01T09:05:41;22.43;;;13.87;;
65234;SDS011;51820;48.374;10.930;2022-09-01T09:08:21;19.58;;;12.55;;
65234;SDS011;51820;48.374;10.930;2022-09-01T09:11:30;15.25;;;9.38;;
65234;SDS011;51820;48.374;10.930;2022-09-01T09:14:24;13.60;;;8.07;;
65234;SDS011;51820;48.374;10.930;2022-09-01T09:17:00;14.55;;;8.55;;
65234;SDS011;51820;48.374;10.930;2022-09-01T09:19:33;13.57;;;7.63;;
65234;SDS011;51820;48.374;10.930;2022-09-01T09:22:04;13.40;;;7.35;;
65234;SDS011;51820;48.374;10.930;2022-09-01T09:24:38;13.15;;;7.30;;
65234;SDS011;51820;48.374;10.930;2022-09-01T09:27:18;11.25;;;7.32;;
65234;SDS011;51820;48.374;10.930;2022-09-01T09:29:51;13.70;;;7.25;;
65234;SDS011;51820;48.374;10.930;2022-09-01T09:32:22;12.50;;;7.10;;
65234;SDS011;51820;48.374;10.930;2022-09-01T09:35:28;10.88;;;7.07;;
65234;SDS011;51820;48.374;10.930;2022-09-01T09:38:15;12.85;;;6.78;;
65234;SDS011;51820;48.374;10.930;2022-09-01T09:40:56;11.32;;;6.78;;
65234;SDS011;51820;48.374;10.930;2022-09-01T09:43:47;11.70;;;7.20;;
65234;SDS011;51820;48.374;10.930;2022-09-01T09:46:34;11.13;;;6.90;;
65234;SDS011;51820;48.374;10.930;2022-09-01T09:49:12;13.40;;;6.88;;
65234;SDS011;51820;48.374;10.930;2022-09-01T09:52:11;12.30;;;6.93;;
65234;SDS011;51820;48.374;10.930;2022-09-01T09:54:58;11.23;;;6.72;;
65234;SDS011;51820;48.374;10.930;2022-09-01T09:57:30;12.02;;;6.80;;
65234;SDS011;51820;48.374;10.930;2022-09-01T10:00:14;10.10;;;6.43;;
65234;SDS011;51820;48.374;10.930;2022-09-01T10:06:32;16.02;;;7.20;;
65234;SDS011;51820;48.374;10.930;2022-09-01T10:09:04;11.13;;;6.45;;
65234;SDS011;51820;48.374;10.930;2022-09-01T10:11:50;10.77;;;6.93;;
65234;SDS011;51820;48.374;10.930;2022-09-01T10:14:23;11.03;;;6.33;;
65234;SDS011;51820;48.374;10.930;2022-09-01T10:17:53;9.23;;;5.78;;
65234;SDS011;51820;48.374;10.930;2022-09-01T10:25:35;9.18;;;6.03;;
65234;SDS011;51820;48.374;10.930;2022-09-01T10:28:24;13.00;;;6.55;;
65234;SDS011;51820;48.374;10.930;2022-09-01T10:31:05;9.50;;;6.13;;
65234;SDS011;51820;48.374;10.930;2022-09-01T10:37:46;10.77;;;6.30;;
65234;SDS011;51820;48.374;10.930;2022-09-01T11:05:11;16.27;;;7.75;;
65234;SDS011;51820;48.374;10.930;2022-09-01T11:07:44;20.40;;;13.57;;
65234;SDS011;51820;48.374;10.930;2022-09-01T11:10:42;22.95;;;16.65;;
65234;SDS011;51820;48.374;10.930;2022-09-01T11:13:27;12.40;;;7.45;;
65234;SDS011;51820;48.374;10.930;2022-09-01T11:22:13;9.43;;;5.50;;
65234;SDS011;51820;48.374;10.930;2022-09-01T11:31:25;7.65;;;4.88;;
65234;SDS011;51820;48.374;10.930;2022-09-01T11:34:09;8.20;;;5.07;;
65234;SDS011;51820;48.374;10.930;2022-09-01T11:36:45;8.73;;;4.73;;
65234;SDS011;51820;48.374;10.930;2022-09-01T11:39:30;7.88;;;4.78;;
65234;SDS011;51820;48.374;10.930;2022-09-01T11:42:04;9.38;;;5.05;;
65234;SDS011;51820;48.374;10.930;2022-09-01T11:44:40;7.28;;;4.13;;
65234;SDS011;51820;48.374;10.930;2022-09-01T11:47:16;6.43;;;3.40;;
65234;SDS011;51820;48.374;10.930;2022-09-01T11:49:48;6.27;;;3.20;;
65234;SDS011;51820;48.374;10.930;2022-09-01T11:52:20;6.45;;;3.40;;
65234;SDS011;51820;48.374;10.930;2022-09-01T11:54:51;6.72;;;2.92;;
65234;SDS011;51820;48.374;10.930;2022-09-01T11:57:50;5.75;;;2.88;;
65234;SDS011;51820;48.374;10.930;2022-09-01T12:00:24;5.72;;;2.83;;
65234;SDS011;51820;48.374;10.930;2022-09-01T12:02:53;5.60;;;3.10;;
65234;SDS011;51820;48.374;10.930;2022-09-01T12:05:29;6.13;;;3.28;;
65234;SDS011;51820;48.374;10.930;2022-09-01T12:14:37;6.50;;;3.53;;
65234;SDS011;51820;48.374;10.930;2022-09-01T12:17:42;5.80;;;2.93;;
65234;SDS011;51820;48.374;10.930;2022-09-01T12:55:20;9.25;;;5.63;;
65234;SDS011;51820;48.374;10.930;2022-09-01T12:58:10;34.37;;;20.83;;
65234;SDS011;51820;48.374;10.930;2022-09-01T13:00:53;16.95;;;9.80;;
65234;SDS011;51820;48.374;10.930;2022-09-01T13:03:23;6.20;;;3.42;;
65234;SDS011;51820;48.374;10.930;2022-09-01T13:05:53;7.85;;;3.00;;
65234;SDS011;51820;48.374;10.930;2022-09-01T13:08:30;5.80;;;3.00;;
65234;SDS011;51820;48.374;10.930;2022-09-01T13:11:05;14.33;;;3.37;;
65234;SDS011;51820;48.374;10.930;2022-09-01T13:13:37;8.70;;;2.83;;
65234;SDS011;51820;48.374;10.930;2022-09-01T13:16:07;7.22;;;2.85;;
65234;SDS011;51820;48.374;10.930;2022-09-01T13:18:38;6.38;;;2.50;;
65234;SDS011;51820;48.374;10.930;2022-09-01T13:21:27;6.82;;;2.70;;
65234;SDS011;51820;48.374;10.930;2022-09-01T13:23:56;4.93;;;2.37;;
65234;SDS011;51820;48.374;10.930;2022-09-01T13:26:26;6.72;;;2.97;;
65234;SDS011;51820;48.374;10.930;2022-09-01T13:28:56;6.15;;;2.67;;
65234;SDS011;51820;48.374;10.930;2022-09-01T13:31:25;6.25;;;2.38;;
65234;SDS011;51820;48.374;10.930;2022-09-01T13:33:56;5.72;;;2.38;;
65234;SDS011;51820;48.374;10.930;2022-09-01T13:36:45;4.80;;;2.37;;
65234;SDS011;51820;48.374;10.930;2022-09-01T13:39:17;5.95;;;2.55;;
65234;SDS011;51820;48.374;10.930;2022-09-01T13:41:48;8.27;;;2.70;;
65234;SDS011;51820;48.374;10.930;2022-09-01T13:44:16;5.90;;;2.55;;
65234;SDS011;51820;48.374;10.930;2022-09-01T13:46:44;5.72;;;2.78;;
65234;SDS011;51820;48.374;10.930;2022-09-01T13:49:33;7.43;;;2.50;;
65234;SDS011;51820;48.374;10.930;2022-09-01T13:52:21;5.90;;;2.47;;
65234;SDS011;51820;48.374;10.930;2022-09-01T13:54:52;6.97;;;2.47;;
65234;SDS011;51820;48.374;10.930;2022-09-01T13:57:22;5.65;;;2.60;;
65234;SDS011;51820;48.374;10.930;2022-09-01T13:59:50;5.60;;;2.50;;
65234;SDS011;51820;48.374;10.930;2022-09-01T14:02:19;4.50;;;2.10;;
65234;SDS011;51820;48.374;10.930;2022-09-01T14:04:47;5.72;;;2.58;;
65234;SDS011;51820;48.374;10.930;2022-09-01T14:07:15;7.75;;;2.45;;
65234;SDS011;51820;48.374;10.930;2022-09-01T14:09:44;5.70;;;2.10;;
65234;SDS011;51820;48.374;10.930;2022-09-01T14:12:12;6.15;;;2.30;;
65234;SDS011;51820;48.374;10.930;2022-09-01T14:14:42;4.20;;;1.90;;
65234;SDS011;51820;48.374;10.930;2022-09-01T14:17:30;5.25;;;2.17;;
65234;SDS011;51820;48.374;10.930;2022-09-01T14:20:02;6.75;;;2.20;;
65234;SDS011;51820;48.374;10.930;2022-09-01T14:22:33;6.43;;;2.45;;
65234;SDS011;51820;48.374;10.930;2022-09-01T14:25:04;6.20;;;2.25;;
65234;SDS011;51820;48.374;10.930;2022-09-01T14:27:33;5.20;;;2.40;;
65234;SDS011;51820;48.374;10.930;2022-09-01T14:37:14;6.22;;;2.40;;
65234;SDS011;51820;48.374;10.930;2022-09-01T14:39:47;5.15;;;2.30;;
65234;SDS011;51820;48.374;10.930;2022-09-01T14:42:22;4.83;;;2.07;;
65234;SDS011;51820;48.374;10.930;2022-09-01T14:44:56;5.10;;;2.20;;
65234;SDS011;51820;48.374;10.930;2022-09-01T14:47:34;6.32;;;2.40;;
65234;SDS011;51820;48.374;10.930;2022-09-01T14:50:03;5.07;;;2.40;;
65234;SDS011;51820;48.374;10.930;2022-09-01T14:52:38;7.57;;;2.53;;
65234;SDS011;51820;48.374;10.930;2022-09-01T14:55:08;7.10;;;2.33;;
65234;SDS011;51820;48.374;10.930;2022-09-01T14:57:37;4.72;;;2.20;;
65234;SDS011;51820;48.374;10.930;2022-09-01T15:00:09;5.03;;;2.17;;
65234;SDS011;51820;48.374;10.930;2022-09-01T15:02:39;6.22;;;2.17;;
65234;SDS011;51820;48.374;10.930;2022-09-01T15:05:14;6.47;;;2.30;;
65234;SDS011;51820;48.374;10.930;2022-09-01T15:07:44;5.73;;;2.00;;
65234;SDS011;51820;48.374;10.930;2022-09-01T15:10:13;5.55;;;2.20;;
65234;SDS011;51820;48.374;10.930;2022-09-01T15:12:50;5.75;;;2.25;;
65234;SDS011;51820;48.374;10.930;2022-09-01T15:15:19;7.45;;;2.28;;
65234;SDS011;51820;48.374;10.930;2022-09-01T15:17:48;4.65;;;2.13;;
65234;SDS011;51820;48.374;10.930;2022-09-01T15:20:16;7.50;;;1.80;;
65234;SDS011;51820;48.374;10.930;2022-09-01T15:23:03;5.32;;;1.95;;
65234;SDS011;51820;48.374;10.930;2022-09-01T15:25:33;8.63;;;2.35;;
65234;SDS011;51820;48.374;10.930;2022-09-01T15:28:01;7.32;;;2.20;;
65234;SDS011;51820;48.374;10.930;2022-09-01T15:30:29;5.22;;;2.20;;
65234;SDS011;51820;48.374;10.930;2022-09-01T15:32:59;7.50;;;2.10;;
65234;SDS011;51820;48.374;10.930;2022-09-01T15:35:28;5.93;;;2.10;;
65234;SDS011;51820;48.374;10.930;2022-09-01T15:37:56;5.15;;;2.10;;
65234;SDS011;51820;48.374;10.930;2022-09-01T15:40:26;6.80;;;2.00;;
65234;SDS011;51820;48.374;10.930;2022-09-01T15:45:54;7.00;;;2.00;;
65234;SDS011;51820;48.374;10.930;2022-09-01T15:48:26;7.63;;;1.83;;
65234;SDS011;51820;48.374;10.930;2022-09-01T15:50:57;7.47;;;1.90;;
65234;SDS011;51820;48.374;10.930;2022-09-01T15:53:44;6.47;;;1.90;;
65234;SDS011;51820;48.374;10.930;2022-09-01T15:56:16;6.85;;;1.73;;
65234;SDS011;51820;48.374;10.930;2022-09-01T15:58:44;7.07;;;2.03;;
65234;SDS011;51820;48.374;10.930;2022-09-01T16:01:27;5.20;;;1.85;;
65234;SDS011;51820;48.374;10.930;2022-09-01T16:03:57;4.28;;;1.58;;
65234;SDS011;51820;48.374;10.930;2022-09-01T16:06:26;5.65;;;1.70;;
65234;SDS011;51820;48.374;10.930;2022-09-01T16:08:55;5.63;;;1.90;;
65234;SDS011;51820;48.374;10.930;2022-09-01T16:11:25;5.10;;;1.80;;
65234;SDS011;51820;48.374;10.930;2022-09-01T16:13:53;4.35;;;1.60;;
65234;SDS011;51820;48.374;10.930;2022-09-01T16:16:28;5.32;;;1.88;;
65234;SDS011;51820;48.374;10.930;2022-09-01T16:19:10;4.50;;;1.65;;
65234;SDS011;51820;48.374;10.930;2022-09-01T16:21:48;6.05;;;1.58;;
65234;SDS011;51820;48.374;10.930;2022-09-01T16:24:20;4.27;;;1.60;;
65234;SDS011;51820;48.374;10.930;2022-09-01T16:26:51;5.22;;;1.83;;
65234;SDS011;51820;48.374;10.930;2022-09-01T16:29:26;5.13;;;1.80;;
65234;SDS011;51820;48.374;10.930;2022-09-01T16:32:01;5.70;;;1.70;;
65234;SDS011;51820;48.374;10.930;2022-09-01T16:34:29;5.55;;;1.40;;
65234;SDS011;51820;48.374;10.930;2022-09-01T16:37:01;7.17;;;1.77;;
65234;SDS011;51820;48.374;10.930;2022-09-01T16:39:37;4.88;;;1.60;;
65234;SDS011;51820;48.374;10.930;2022-09-01T16:42:17;7.28;;;2.65;;
65234;SDS011;51820;48.374;10.930;2022-09-01T16:44:58;5.35;;;2.30;;